Time;durP1;ratioP1;P1;durP2;ratioP2;P2;SDS_P1;SDS_P2;PMS_P1;PMS_P2;Temp;Humidity;BMP_temperature;BMP_pressure;BME280_temperature;BME280_humidity;BME280_pressure;Samples;Min_cycle;Max_cycle;Signal;HPM_P1;HPM_P2
2021/12/17 00:00:19;;;;;;;44.03;28.25;;;;;;;5.40;100.00;102489.09;5081212;28;20085;-72
2021/12/17 00:05:42;;;;;;;41.35;26.48;;;;;;;5.31;100.00;102488.47;5081235;28;20016;-73
2021/12/17 00:08:07;;;;;;;41.78;27.42;;;;;;;5.25;100.00;102481.03;5079787;28;20101;-72
2021/12/17 00:10:33;;;;;;;46.38;29.35;;;;;;;5.17;100.00;102483.16;5065079;28;20032;-72
2021/12/17 00:12:59;;;;;;;43.20;27.27;;;;;;;5.13;100.00;102482.75;5063076;28;20039;-72
2021/12/17 00:15:24;;;;;;;44.45;27.33;;;;;;;5.11;100.00;102480.19;5078664;28;20024;-72
2021/12/17 00:17:57;;;;;;;42.65;26.92;;;;;;;5.09;100.00;102486.97;5077901;28;20028;-72
2021/12/17 00:50:12;;;;;;;;;;;;;;;4.57;100.00;102472.84;5060865;28;20032;-72
2021/12/17 00:52:39;;;;;;;44.58;27.70;;;;;;;4.52;100.00;102475.38;5097486;28;19916;-72
2021/12/17 00:55:06;;;;;;;51.30;30.30;;;;;;;4.51;100.00;102473.66;5080949;28;20657;-72
2021/12/17 00:57:38;;;;;;;51.67;30.00;;;;;;;4.52;100.00;102477.28;5046217;28;20504;-72
2021/12/17 01:00:05;;;;;;;;;;;;;;;4.47;100.00;102483.38;5064765;28;20082;-73
2021/12/17 01:02:32;;;;;;;52.28;30.63;;;;;;;4.46;100.00;102470.69;5092918;28;20272;-73
2021/12/17 01:04:59;;;;;;;50.40;29.38;;;;;;;4.48;100.00;102474.06;5062682;28;20028;-72
2021/12/17 01:07:32;;;;;;;48.97;28.25;;;;;;;4.45;100.00;102477.22;5086479;28;20024;-72
2021/12/17 01:09:57;;;;;;;50.17;29.52;;;;;;;4.42;100.00;102475.75;5078268;28;20530;-72
2021/12/17 01:12:23;;;;;;;46.22;28.67;;;;;;;4.36;100.00;102471.06;5076715;28;20032;-73
2021/12/17 01:14:49;;;;;;;53.10;30.17;;;;;;;4.30;100.00;102465.53;5071228;28;20488;-73
2021/12/17 01:17:15;;;;;;;53.17;30.60;;;;;;;4.28;100.00;102467.66;5066487;28;20112;-72
2021/12/17 01:35:22;;;;;;;42.90;27.08;;;;;;;4.09;100.00;102475.56;5067741;28;20417;-72
2021/12/17 01:40:56;;;;;;;49.65;28.13;;;;;;;4.03;100.00;102465.41;5081930;28;20032;-72
2021/12/17 01:43:16;;;;;;;45.83;26.25;;;;;;;4.00;100.00;102465.81;5070018;28;20036;-72
2021/12/17 01:45:42;;;;;;;50.70;28.52;;;;;;;3.95;100.00;102460.91;5078723;28;20089;-72
2021/12/17 01:48:11;;;;;;;51.95;29.73;;;;;;;3.87;100.00;102465.72;5076874;28;20492;-72
2021/12/17 02:01:28;;;;;;;49.42;27.63;;;;;;;3.71;100.00;102456.75;5076739;28;20031;-72
2021/12/17 02:03:55;;;;;;;48.53;28.08;;;;;;;3.70;100.00;102448.69;5076608;28;20029;-72
2021/12/17 02:06:22;;;;;;;52.90;29.10;;;;;;;3.69;100.00;102452.50;5061231;28;20032;-73
2021/12/17 02:08:49;;;;;;;46.22;27.55;;;;;;;3.66;100.00;102456.50;5046388;28;20028;-72
2021/12/17 02:32:51;;;;;;;50.33;28.83;;;;;;;3.31;100.00;102436.34;5078373;28;20460;-72
2021/12/17 02:35:30;;;;;;;49.60;27.58;;;;;;;3.34;100.00;102446.94;5080415;28;20031;-72
2021/12/17 02:37:56;;;;;;;44.50;26.92;;;;;;;3.26;100.00;102427.84;5053126;28;20035;-72
2021/12/17 02:45:45;;;;;;;49.15;27.60;;;;;;;3.27;100.00;102433.16;5073822;28;20107;-72
2021/12/17 02:48:13;;;;;;;44.20;25.55;;;;;;;3.27;100.00;102435.91;5079605;28;20038;-72
2021/12/17 02:50:45;;;;;;;44.70;26.40;;;;;;;3.26;100.00;102436.97;5089667;28;20035;-72
2021/12/17 02:53:11;;;;;;;43.72;24.60;;;;;;;3.29;100.00;102432.97;5094175;28;20035;-72
2021/12/17 02:55:39;;;;;;;43.60;25.73;;;;;;;3.27;100.00;102430.41;5079157;28;20078;-72
2021/12/17 02:58:05;;;;;;;43.10;24.90;;;;;;;3.24;100.00;102438.22;5068778;28;20511;-72
2021/12/17 03:00:31;;;;;;;45.00;24.10;;;;;;;3.22;100.00;102445.78;5075690;28;20496;-73
2021/12/17 03:02:57;;;;;;;44.85;25.20;;;;;;;3.16;100.00;102428.22;5081469;28;20040;-72
2021/12/17 03:05:23;;;;;;;44.40;24.15;;;;;;;3.16;100.00;102424.63;5081426;28;20039;-72
2021/12/17 03:07:49;;;;;;;40.90;24.15;;;;;;;3.12;100.00;102427.78;5058318;28;20028;-72
2021/12/17 03:10:15;;;;;;;45.45;25.50;;;;;;;3.09;100.00;102419.94;5076221;28;20066;-72
2021/12/17 03:12:51;;;;;;;44.40;25.33;;;;;;;3.09;100.00;102428.16;5078134;28;20024;-72
2021/12/17 03:23:31;;;;;;;38.47;22.70;;;;;;;3.11;100.00;102420.56;5080239;28;20077;-72
2021/12/17 03:26:01;;;;;;;42.85;23.63;;;;;;;3.07;100.00;102422.00;5062940;28;20119;-72
2021/12/17 03:28:26;;;;;;;42.15;23.83;;;;;;;3.06;100.00;102419.47;5095535;28;20028;-72
2021/12/17 03:30:52;;;;;;;42.10;23.80;;;;;;;3.00;100.00;102412.84;5056973;28;20048;-72
2021/12/17 03:33:19;;;;;;;43.78;24.55;;;;;;;3.01;100.00;102408.22;5095314;28;20043;-72
2021/12/17 03:35:45;;;;;;;38.42;22.65;;;;;;;2.97;100.00;102412.41;5061376;28;20051;-72
2021/12/17 03:38:10;;;;;;;40.35;23.63;;;;;;;3.00;100.00;102410.13;5090699;28;20081;-72
2021/12/17 03:40:36;;;;;;;48.22;25.52;;;;;;;2.92;100.00;102410.25;5063833;28;20025;-73
2021/12/17 03:43:05;;;;;;;43.33;24.98;;;;;;;2.89;100.00;102403.25;5061733;28;20027;-72
2021/12/17 03:45:30;;;;;;;39.75;23.42;;;;;;;2.87;100.00;102410.84;5062039;28;20028;-73
2021/12/17 03:47:56;;;;;;;39.72;21.75;;;;;;;2.91;100.00;102403.91;5079105;28;20028;-72
2021/12/17 03:50:21;;;;;;;41.90;22.38;;;;;;;2.89;100.00;102403.25;5077839;28;20035;-72
2021/12/17 03:52:47;;;;;;;40.00;21.70;;;;;;;2.92;100.00;102404.75;5078672;28;20032;-72
2021/12/17 03:55:12;;;;;;;38.05;23.85;;;;;;;2.89;100.00;102403.25;5081059;28;20034;-72
2021/12/17 03:57:38;;;;;;;38.58;21.90;;;;;;;2.93;100.00;102400.16;5078640;28;20032;-72
2021/12/17 04:00:04;;;;;;;36.47;21.02;;;;;;;2.91;100.00;102409.41;5095692;28;20032;-73
2021/12/17 04:02:30;;;;;;;37.20;21.13;;;;;;;2.91;100.00;102405.81;5062958;28;20031;-72
2021/12/17 04:04:55;;;;;;;33.72;20.95;;;;;;;2.90;100.00;102402.22;5061789;28;20532;-72
2021/12/17 04:07:21;;;;;;;35.58;21.38;;;;;;;2.87;100.00;102405.38;5077331;28;20037;-73
2021/12/17 04:09:46;;;;;;;32.40;20.23;;;;;;;2.91;100.00;102408.56;5062350;28;20041;-72
2021/12/17 04:12:16;;;;;;;34.00;20.15;;;;;;;2.86;100.00;102408.28;5059356;28;20032;-72
2021/12/17 04:14:45;;;;;;;34.30;20.92;;;;;;;2.82;100.00;102413.34;5065306;28;20040;-73
2021/12/17 04:17:11;;;;;;;35.75;20.98;;;;;;;2.79;100.00;102407.41;5077119;28;20028;-72
2021/12/17 04:19:36;;;;;;;38.72;21.15;;;;;;;2.72;100.00;102407.31;5063171;28;20062;-73
2021/12/17 04:22:03;;;;;;;35.33;21.42;;;;;;;2.70;100.00;102409.41;5045124;28;20123;-72
2021/12/17 04:24:28;;;;;;;35.33;20.88;;;;;;;2.71;100.00;102405.63;5078881;28;20111;-73
2021/12/17 04:26:54;;;;;;;37.28;22.23;;;;;;;2.63;100.00;102403.00;5058236;28;20035;-72
2021/12/17 04:29:21;;;;;;;38.65;22.95;;;;;;;2.56;100.00;102413.91;5074742;28;20090;-72
2021/12/17 04:31:55;;;;;;;44.63;23.50;;;;;;;2.51;100.00;102410.03;5043612;28;20121;-72
2021/12/17 04:34:21;;;;;;;44.97;24.83;;;;;;;2.49;100.00;102414.88;5081423;28;20119;-72
2021/12/17 04:36:49;;;;;;;39.10;23.25;;;;;;;2.49;100.00;102413.00;5083516;28;20069;-72
2021/12/17 04:39:19;;;;;;;37.85;22.05;;;;;;;2.52;100.00;102411.75;5073446;28;20037;-72
2021/12/17 04:41:54;;;;;;;43.00;24.52;;;;;;;2.43;100.00;102414.63;5080893;28;20039;-72
2021/12/17 04:44:26;;;;;;;39.67;23.55;;;;;;;2.41;100.00;102416.69;5064843;28;20035;-72
2021/12/17 04:57:17;;;;;;;40.63;22.92;;;;;;;2.41;100.00;102413.94;5047016;28;20041;-72
2021/12/17 04:57:52;;;;;;;38.53;22.70;;;;;;;2.38;100.00;102416.25;5097211;28;20100;-72
2021/12/17 05:00:20;;;;;;;38.92;22.42;;;;;;;2.39;100.00;102418.78;5082481;28;20043;-72
2021/12/17 05:02:49;;;;;;;46.55;25.63;;;;;;;2.30;100.00;102411.72;5072097;28;20034;-72
2021/12/17 05:05:16;;;;;;;46.25;25.95;;;;;;;2.24;100.00;102415.22;5064237;28;20038;-72
2021/12/17 05:07:48;;;;;;;44.70;24.70;;;;;;;2.26;100.00;102415.91;5078032;28;20119;-72
2021/12/17 05:20:52;;;;;;;52.30;26.88;;;;;;;2.20;100.00;102412.03;5095755;28;20024;-72
2021/12/17 05:23:23;;;;;;;53.65;26.70;;;;;;;2.21;100.00;102410.97;5045736;28;20374;-72
2021/12/17 05:25:49;;;;;;;44.45;25.33;;;;;;;2.23;100.00;102411.66;5060722;28;20073;-72
2021/12/17 05:28:14;;;;;;;48.67;26.30;;;;;;;2.23;100.00;102408.91;5078665;28;20039;-72
2021/12/17 05:30:45;;;;;;;51.55;25.88;;;;;;;2.21;100.00;102407.38;5075453;28;20048;-73
2021/12/17 05:33:15;;;;;;;48.50;26.75;;;;;;;2.22;100.00;102411.81;5080310;28;20111;-72
2021/12/17 05:35:40;;;;;;;47.72;26.10;;;;;;;2.20;100.00;102409.28;5047961;28;20062;-72
2021/12/17 05:38:06;;;;;;;48.30;25.98;;;;;;;2.22;100.00;102409.91;5062190;28;20023;-72
2021/12/17 05:40:31;;;;;;;51.22;27.00;;;;;;;2.26;100.00;102407.66;5043694;28;20848;-72
2021/12/17 05:43:00;;;;;;;52.40;28.60;;;;;;;2.22;100.00;102406.34;5093098;28;20032;-72
2021/12/17 05:48:21;;;;;;;48.55;25.40;;;;;;;2.21;100.00;102410.13;5040228;28;20773;-72
2021/12/17 05:50:47;;;;;;;48.33;25.02;;;;;;;2.17;100.00;102406.94;5060591;28;20027;-72
2021/12/17 05:53:13;;;;;;;48.33;27.58;;;;;;;2.19;100.00;102412.22;5066593;28;20031;-72
2021/12/17 05:55:38;;;;;;;52.33;27.85;;;;;;;2.18;100.00;102413.25;5058366;28;20481;-71
2021/12/17 05:58:04;;;;;;;52.88;27.48;;;;;;;2.16;100.00;102418.06;5065744;28;20040;-72
2021/12/17 06:00:30;;;;;;;51.08;27.10;;;;;;;2.16;100.00;102413.44;5096232;28;20039;-72
2021/12/17 06:02:56;;;;;;;50.17;28.77;;;;;;;2.16;100.00;102416.19;5076365;28;20035;-72
2021/12/17 06:05:22;;;;;;;48.25;26.17;;;;;;;2.15;100.00;102417.22;5094146;28;20020;-72
2021/12/17 06:07:48;;;;;;;47.33;25.77;;;;;;;2.17;100.00;102417.91;5078034;28;20031;-72
2021/12/17 06:10:13;;;;;;;48.55;26.25;;;;;;;2.16;100.00;102416.19;5062722;28;20566;-72
2021/12/17 06:12:39;;;;;;;47.50;26.60;;;;;;;2.17;100.00;102409.69;5057310;28;20413;-72
2021/12/17 06:15:06;;;;;;;46.65;25.55;;;;;;;2.16;100.00;102401.63;5066725;28;20035;-72
2021/12/17 06:17:31;;;;;;;41.78;24.23;;;;;;;2.20;100.00;102403.81;5067659;28;20039;-72
2021/12/17 06:19:57;;;;;;;42.72;24.88;;;;;;;2.19;100.00;102399.34;5078578;28;20032;-72
2021/12/17 06:22:23;;;;;;;44.83;24.90;;;;;;;2.26;100.00;102409.53;5094335;28;20108;-72
2021/12/17 06:24:48;;;;;;;43.17;24.20;;;;;;;2.21;100.00;102410.13;5047718;28;20032;-72
2021/12/17 06:27:18;;;;;;;48.58;26.17;;;;;;;2.14;100.00;102414.66;5081890;28;20032;-72
2021/12/17 06:29:44;;;;;;;48.63;24.75;;;;;;;2.08;100.00;102413.53;5076309;28;20131;-72
2021/12/17 06:32:09;;;;;;;55.28;26.88;;;;;;;2.07;100.00;102408.28;5059867;28;20024;-72
2021/12/17 06:34:35;;;;;;;51.63;27.58;;;;;;;2.00;100.00;102403.53;5076881;28;20028;-71
2021/12/17 06:37:02;;;;;;;49.22;27.13;;;;;;;1.98;100.00;102404.78;5054396;28;20110;-72
2021/12/17 06:39:27;;;;;;;48.00;27.10;;;;;;;1.93;100.00;102408.09;5066481;28;20043;-72
2021/12/17 06:41:53;;;;;;;48.58;26.83;;;;;;;1.93;100.00;102402.59;5077714;28;20107;-72
2021/12/17 06:44:22;;;;;;;55.38;28.08;;;;;;;1.91;100.00;102415.66;5059038;28;20102;-72
2021/12/17 06:46:57;;;;;;;53.72;28.67;;;;;;;1.94;100.00;102408.94;5097384;28;20040;-72
2021/12/17 06:49:31;;;;;;;53.72;27.35;;;;;;;1.91;100.00;102404.69;5074058;28;20027;-72
2021/12/17 06:54:57;;;;;;;56.03;27.52;;;;;;;1.92;100.00;102411.00;5083355;28;20023;-72
2021/12/17 07:23:25;;;;;;;58.45;29.95;;;;;;;2.04;100.00;102389.47;5079473;28;20024;-68
2021/12/17 07:29:32;;;;;;;53.45;28.33;;;;;;;2.07;100.00;102384.44;5051404;28;20485;-69
2021/12/17 07:34:03;;;;;;;52.58;28.55;;;;;;;2.10;100.00;102380.47;5081272;28;20538;-69
2021/12/17 07:36:39;;;;;;;61.70;29.92;;;;;;;2.10;100.00;102375.84;5080240;28;20035;-69
2021/12/17 07:39:04;;;;;;;61.85;31.55;;;;;;;2.11;100.00;102376.69;5056526;28;20081;-69
2021/12/17 07:41:30;;;;;;;61.38;30.80;;;;;;;2.10;100.00;102383.22;5068175;28;20032;-69
2021/12/17 07:43:58;;;;;;;58.78;31.38;;;;;;;2.10;100.00;102377.72;5062815;28;20051;-69
2021/12/17 07:46:24;;;;;;;60.78;31.77;;;;;;;2.09;100.00;102385.13;5097915;28;20028;-69
2021/12/17 07:48:49;;;;;;;69.38;33.17;;;;;;;2.11;100.00;102383.00;5061703;28;20063;-69
2021/12/17 07:51:16;;;;;;;54.88;30.05;;;;;;;2.11;100.00;102379.44;5076486;28;20064;-69
2021/12/17 07:53:42;;;;;;;62.53;29.85;;;;;;;2.13;100.00;102378.19;5050802;28;20507;-69
2021/12/17 07:56:09;;;;;;;62.40;30.63;;;;;;;2.14;100.00;102385.34;5085300;28;20040;-69
2021/12/17 07:58:35;;;;;;;60.47;30.48;;;;;;;2.15;100.00;102380.75;5052059;28;20100;-69
2021/12/17 08:01:00;;;;;;;56.97;29.42;;;;;;;2.15;100.00;102387.06;5060855;28;20032;-69
2021/12/17 08:03:26;;;;;;;50.28;28.95;;;;;;;2.16;100.00;102382.44;5063460;28;20024;-69
2021/12/17 08:05:52;;;;;;;54.03;27.77;;;;;;;2.15;100.00;102388.97;5064779;28;20032;-69
2021/12/17 08:08:18;;;;;;;59.17;29.65;;;;;;;2.14;100.00;102392.75;5093309;28;20040;-69
2021/12/17 08:10:43;;;;;;;57.38;29.02;;;;;;;2.14;100.00;102393.59;5067575;28;20098;-69
2021/12/17 08:13:16;;;;;;;59.58;30.92;;;;;;;2.16;100.00;102393.41;5064861;28;20028;-69
2021/12/17 08:15:49;;;;;;;64.90;31.83;;;;;;;2.15;100.00;102391.72;5077675;28;20032;-69
2021/12/17 08:26:05;;;;;;;60.25;31.40;;;;;;;2.18;100.00;102389.44;5077623;28;20032;-68
2021/12/17 08:28:51;;;;;;;59.60;30.75;;;;;;;2.19;100.00;102391.13;5071710;28;20035;-68
2021/12/17 08:31:16;;;;;;;63.55;32.20;;;;;;;2.23;100.00;102386.13;5060527;28;20497;-68
2021/12/17 08:33:41;;;;;;;58.83;32.72;;;;;;;2.29;100.00;102390.00;5029926;28;20035;-68
2021/12/17 08:36:07;;;;;;;57.85;29.70;;;;;;;2.29;100.00;102390.81;5061522;28;20037;-68
2021/12/17 08:38:32;;;;;;;60.88;30.33;;;;;;;2.33;100.00;102389.38;5077529;28;20029;-68
2021/12/17 08:40:59;;;;;;;70.13;32.95;;;;;;;2.39;100.00;102391.34;5060031;28;20036;-68
2021/12/17 08:43:25;;;;;;;64.93;33.03;;;;;;;2.43;100.00;102395.41;5044938;28;20024;-69
2021/12/17 08:45:51;;;;;;;62.85;32.17;;;;;;;2.52;100.00;102400.78;5043421;28;20031;-68
2021/12/17 08:48:16;;;;;;;62.95;33.15;;;;;;;2.57;100.00;102403.78;5045734;28;20075;-68
2021/12/17 08:50:42;;;;;;;64.97;32.80;;;;;;;2.63;100.00;102395.63;5042310;28;20029;-68
2021/12/17 08:53:07;;;;;;;60.65;32.15;;;;;;;2.71;100.00;102391.06;5062863;28;20040;-68
2021/12/17 08:55:33;;;;;;;61.22;32.08;;;;;;;2.79;100.00;102396.44;5041568;28;20028;-68
2021/12/17 08:57:58;;;;;;;63.70;32.47;;;;;;;2.86;100.00;102391.84;5071021;28;20032;-68
2021/12/17 09:00:24;;;;;;;69.07;35.08;;;;;;;2.93;100.00;102398.25;5060545;28;20028;-68
2021/12/17 09:02:50;;;;;;;62.60;31.63;;;;;;;3.00;100.00;102388.16;5043399;28;20039;-68
2021/12/17 09:05:17;;;;;;;61.92;31.55;;;;;;;3.09;100.00;102392.47;5055976;28;20017;-69
2021/12/17 09:07:44;;;;;;;60.60;33.05;;;;;;;3.18;100.00;102392.34;5020237;28;20031;-72
2021/12/17 09:10:10;;;;;;;60.33;32.85;;;;;;;3.30;100.00;102402.56;5027157;28;20052;-71
2021/12/17 09:12:37;;;;;;;68.70;34.90;;;;;;;3.38;100.00;102400.72;5058827;28;20025;-71
2021/12/17 09:15:03;;;;;;;65.80;34.42;;;;;;;3.50;100.00;102401.84;5058617;28;20071;-71
2021/12/17 09:17:29;;;;;;;68.90;34.63;;;;;;;3.56;100.00;102409.28;5044478;28;20032;-72
2021/12/17 09:19:54;;;;;;;68.10;34.95;;;;;;;3.68;100.00;102412.34;5059532;28;20039;-72
2021/12/17 09:22:21;;;;;;;64.10;33.47;;;;;;;3.75;100.00;102405.81;5061612;28;20028;-72
2021/12/17 09:24:46;;;;;;;71.55;34.00;;;;;;;3.86;100.00;102409.91;5053480;28;20107;-72
2021/12/17 09:27:12;;;;;;;73.70;34.70;;;;;;;3.94;100.00;102411.63;5032142;28;20028;-72
2021/12/17 09:29:37;;;;;;;66.25;35.53;;;;;;;4.00;100.00;102408.06;5059219;28;20048;-71
2021/12/17 09:32:03;;;;;;;74.18;36.63;;;;;;;4.11;100.00;102417.63;5064114;28;20036;-71
2021/12/17 09:34:28;;;;;;;67.82;35.13;;;;;;;4.20;100.00;102406.25;5047206;28;20039;-72
2021/12/17 09:36:54;;;;;;;69.13;35.78;;;;;;;4.31;100.00;102417.72;5043925;28;20032;-71
2021/12/17 09:39:19;;;;;;;67.15;34.97;;;;;;;4.39;100.00;102399.13;5044140;28;20020;-72
2021/12/17 09:41:50;;;;;;;69.57;36.22;;;;;;;4.53;100.00;102400.00;5044700;28;20024;-70
2021/12/17 09:44:16;;;;;;;70.95;34.67;;;;;;;4.64;100.00;102404.06;5057367;28;20024;-71
2021/12/17 09:46:43;;;;;;;66.70;34.30;;;;;;;4.78;100.00;102402.19;5049055;28;20429;-71
2021/12/17 09:49:09;;;;;;;67.72;35.45;;;;;;;4.86;100.00;102404.75;5046935;28;20534;-71
2021/12/17 09:51:35;;;;;;;64.38;33.65;;;;;;;4.98;100.00;102416.81;5059029;28;20062;-70
2021/12/17 09:54:00;;;;;;;67.95;34.72;;;;;;;5.09;100.00;102415.34;5054434;28;20027;-71
2021/12/17 09:56:27;;;;;;;66.45;36.35;;;;;;;5.19;100.00;102418.53;5095561;28;20032;-70
2021/12/17 09:58:53;;;;;;;71.22;35.90;;;;;;;5.27;100.00;102412.81;5047657;28;20043;-71
2021/12/17 10:01:19;;;;;;;65.85;32.33;;;;;;;5.34;100.00;102415.56;5043539;28;20650;-69
2021/12/17 10:03:45;;;;;;;61.80;33.28;;;;;;;5.49;100.00;102420.84;5076840;28;20021;-71
2021/12/17 10:06:23;;;;;;;62.35;32.63;;;;;;;5.57;100.00;102412.34;5081596;28;20059;-71
2021/12/17 10:08:49;;;;;;;59.25;32.08;;;;;;;5.67;100.00;102417.44;5076978;28;20031;-71
2021/12/17 10:11:14;;;;;;;62.70;31.63;;;;;;;5.72;100.00;102404.69;5097053;28;20076;-71
2021/12/17 10:13:42;;;;;;;63.95;33.35;;;;;;;5.84;100.00;102402.13;5078738;28;20035;-79
2021/12/17 10:16:08;;;;;;;55.13;29.42;;;;;;;5.93;100.00;102411.00;5077476;28;20674;-69
2021/12/17 10:18:46;;;;;;;57.15;31.77;;;;;;;6.00;100.00;102407.19;5065023;28;20032;-70
2021/12/17 10:21:22;;;;;;;62.17;33.30;;;;;;;6.07;100.00;102418.19;5078279;28;20019;-70
2021/12/17 10:23:47;;;;;;;56.85;30.70;;;;;;;6.15;100.00;102395.03;5088115;28;20460;-71
2021/12/17 10:26:14;;;;;;;56.17;29.15;;;;;;;6.25;100.00;102400.94;5072696;28;20043;-71
2021/12/17 10:28:52;;;;;;;55.92;31.33;;;;;;;6.31;100.00;102390.94;5053226;28;20028;-71
2021/12/17 10:31:17;;;;;;;52.08;27.65;;;;;;;6.37;100.00;102390.91;5024160;28;20048;-70
2021/12/17 10:33:48;;;;;;;59.92;31.58;;;;;;;6.43;100.00;102384.50;5038381;28;20029;-70
2021/12/17 10:36:14;;;;;;;63.20;31.85;;;;;;;6.40;100.00;102393.22;5047828;28;20088;-70
2021/12/17 10:38:42;;;;;;;57.05;31.77;;;;;;;6.51;100.00;102388.06;5038969;28;20481;-70
2021/12/17 10:41:13;;;;;;;54.70;31.45;;;;;;;6.55;100.00;102381.91;5049408;28;20028;-70
2021/12/17 10:43:42;;;;;;;57.78;30.15;;;;;;;6.58;100.00;102380.63;5038938;28;20103;-70
2021/12/17 10:46:21;;;;;;;57.67;31.75;;;;;;;6.67;100.00;102382.03;5025360;28;20041;-70
2021/12/17 10:54:11;;;;;;;58.28;29.70;;;;;;;6.79;100.00;102365.59;5041029;28;20743;-70
2021/12/17 10:56:42;;;;;;;50.25;26.50;;;;;;;6.80;100.00;102357.09;5043034;28;20024;-69
2021/12/17 10:59:13;;;;;;;54.80;29.33;;;;;;;6.81;100.00;102358.78;5058089;28;20043;-69
2021/12/17 11:01:44;;;;;;;56.70;30.42;;;;;;;6.82;100.00;102348.56;5061183;28;20032;-70
2021/12/17 11:04:23;;;;;;;52.55;30.02;;;;;;;6.88;100.00;102354.06;5029287;28;20027;-72
2021/12/17 11:06:54;;;;;;;52.72;28.42;;;;;;;6.88;100.00;102354.06;5043574;28;20401;-70
2021/12/17 11:09:44;;;;;;;47.88;26.95;;;;;;;6.92;100.00;102348.94;5074096;28;20048;-71
2021/12/17 11:12:29;;;;;;;49.65;28.23;;;;;;;6.95;100.00;102348.47;5056076;28;20032;-71
2021/12/17 11:15:14;;;;;;;50.20;27.77;;;;;;;7.00;100.00;102343.13;5062634;28;20040;-70
2021/12/17 11:17:41;;;;;;;47.70;26.95;;;;;;;7.02;100.00;102349.28;5047528;28;20044;-71
2021/12/17 11:20:11;;;;;;;49.03;28.33;;;;;;;7.07;100.00;102352.19;5044835;28;20055;-71
2021/12/17 11:22:37;;;;;;;47.22;26.83;;;;;;;7.06;100.00;102338.63;5053374;28;20060;-71
2021/12/17 11:25:03;;;;;;;45.72;28.55;;;;;;;7.06;100.00;102344.13;5052879;28;20104;-71
2021/12/17 11:27:29;;;;;;;54.65;31.02;;;;;;;7.05;100.00;102340.53;5041817;28;20059;-71
2021/12/17 11:29:54;;;;;;;49.47;28.15;;;;;;;7.03;100.00;102333.53;5061984;28;20048;-71
2021/12/17 11:32:20;;;;;;;46.55;26.80;;;;;;;7.05;100.00;102332.25;5033047;28;20039;-71
2021/12/17 11:34:45;;;;;;;48.45;27.63;;;;;;;7.07;100.00;102332.00;5061685;28;20028;-70
2021/12/17 11:37:11;;;;;;;50.08;27.55;;;;;;;7.09;100.00;102325.19;5044111;28;20035;-70
2021/12/17 11:39:54;;;;;;;50.83;28.42;;;;;;;7.15;100.00;102315.13;5044331;28;20033;-71
2021/12/17 11:43:14;;;;;;;50.65;28.13;;;;;;;7.18;100.00;102314.69;5012853;28;20460;-71
2021/12/17 11:45:40;;;;;;;49.63;26.92;;;;;;;7.24;100.00;102311.00;5063437;28;20040;-72
2021/12/17 11:48:18;;;;;;;46.53;26.27;;;;;;;7.24;100.00;102311.00;5048082;28;20032;-71
2021/12/17 11:50:45;;;;;;;49.97;26.35;;;;;;;7.23;100.00;102317.63;5038961;28;20546;-71
2021/12/17 11:53:22;;;;;;;45.03;26.45;;;;;;;7.25;100.00;102309.09;5024400;28;20112;-71
2021/12/17 11:55:55;;;;;;;47.10;28.38;;;;;;;7.24;100.00;102313.75;5042920;28;20073;-71
2021/12/17 11:58:42;;;;;;;47.03;26.08;;;;;;;7.25;100.00;102307.19;5033692;28;20042;-71
2021/12/17 12:01:07;;;;;;;46.70;25.85;;;;;;;7.27;100.00;102307.81;5043969;28;20527;-71
2021/12/17 12:03:33;;;;;;;51.70;28.58;;;;;;;7.20;100.00;102298.72;5038928;28;20028;-71
2021/12/17 12:06:00;;;;;;;44.85;24.58;;;;;;;7.22;100.00;102306.81;5039834;28;20037;-71
2021/12/17 12:08:37;;;;;;;49.67;28.58;;;;;;;7.14;100.00;102307.94;5025756;28;20078;-71
2021/12/17 12:11:30;;;;;;;46.50;26.30;;;;;;;7.19;100.00;102307.22;5042243;28;20040;-71
2021/12/17 12:13:56;;;;;;;46.67;27.05;;;;;;;7.20;100.00;102301.50;5041996;28;20036;-71
2021/12/17 12:16:26;;;;;;;50.90;28.67;;;;;;;7.18;100.00;102303.63;5029997;28;20055;-71
2021/12/17 12:18:53;;;;;;;48.17;26.85;;;;;;;7.20;100.00;102297.88;5061443;28;20521;-71
2021/12/17 12:21:20;;;;;;;46.15;26.75;;;;;;;7.23;100.00;102294.66;5007899;28;20035;-71
2021/12/17 12:23:56;;;;;;;45.05;25.42;;;;;;;7.20;100.00;102297.88;5043975;28;20060;-71
2021/12/17 12:26:26;;;;;;;47.88;27.45;;;;;;;7.19;100.00;102299.81;5043396;28;20050;-71
2021/12/17 12:29:09;;;;;;;46.38;26.27;;;;;;;7.20;100.00;102289.59;5025308;28;20020;-71
2021/12/17 12:31:38;;;;;;;48.15;25.52;;;;;;;7.24;100.00;102299.09;5070036;28;20036;-70
2021/12/17 12:34:07;;;;;;;46.83;27.88;;;;;;;7.17;100.00;102290.91;5054912;28;20035;-71
2021/12/17 12:36:58;;;;;;;45.35;25.40;;;;;;;7.18;100.00;102291.75;5080375;28;20024;-71
2021/12/17 12:39:46;;;;;;;46.33;24.90;;;;;;;7.19;100.00;102280.47;5078123;28;20063;-71
2021/12/17 12:42:35;;;;;;;43.78;24.90;;;;;;;7.17;100.00;102279.84;5058936;28;20036;-71
2021/12/17 12:45:03;;;;;;;37.35;21.90;;;;;;;7.17;100.00;102271.56;5065532;28;20020;-71
2021/12/17 12:47:31;;;;;;;39.05;22.08;;;;;;;7.14;100.00;102275.63;5060425;28;20033;-71
2021/12/17 12:50:03;;;;;;;42.13;23.80;;;;;;;7.13;100.00;102273.06;5098117;28;20082;-71
2021/12/17 12:52:32;;;;;;;39.55;23.17;;;;;;;7.08;100.00;102270.16;5069608;28;20036;-71
2021/12/17 12:55:12;;;;;;;35.13;21.20;;;;;;;7.10;100.00;102262.47;5081370;28;20110;-71
2021/12/17 12:57:43;;;;;;;37.83;22.10;;;;;;;7.09;100.00;102260.78;5080223;28;20032;-71
2021/12/17 13:00:15;;;;;;;44.05;22.98;;;;;;;7.10;100.00;102260.59;5035563;28;20028;-73
2021/12/17 13:02:42;;;;;;;38.57;23.13;;;;;;;7.10;100.00;102260.59;5036833;28;20036;-71
2021/12/17 13:05:08;;;;;;;41.72;22.40;;;;;;;7.11;100.00;102264.19;5106542;28;20032;-71
2021/12/17 13:07:34;;;;;;;43.63;23.73;;;;;;;7.06;100.00;102253.81;5098823;28;20031;-71
2021/12/17 13:10:12;;;;;;;42.80;23.00;;;;;;;7.07;100.00;102251.88;5080179;28;20031;-71
2021/12/17 13:12:38;;;;;;;37.72;21.75;;;;;;;7.05;100.00;102256.78;5099999;28;20027;-71
2021/12/17 13:15:18;;;;;;;46.58;22.67;;;;;;;7.03;100.00;102247.91;5064012;28;20090;-71
2021/12/17 13:23:30;;;;;;;38.75;21.02;;;;;;;6.92;100.00;102238.44;5071849;28;20031;-71
2021/12/17 13:26:04;;;;;;;40.20;21.23;;;;;;;6.90;100.00;102229.53;5077851;28;20040;-71
2021/12/17 13:28:47;;;;;;;42.22;21.90;;;;;;;6.93;100.00;102229.91;5062904;28;20024;-71
2021/12/17 13:31:12;;;;;;;35.08;20.02;;;;;;;6.90;100.00;102224.84;5045531;28;20040;-71
2021/12/17 13:33:38;;;;;;;41.20;20.95;;;;;;;6.94;100.00;102230.78;5047270;28;20051;-71
2021/12/17 13:36:11;;;;;;;39.80;21.00;;;;;;;6.95;100.00;102229.69;5031203;28;20111;-71
2021/12/17 13:38:37;;;;;;;41.40;21.58;;;;;;;6.93;100.00;102229.91;5043571;28;20108;-71
2021/12/17 13:41:06;;;;;;;38.60;20.02;;;;;;;6.99;100.00;102228.16;5043385;28;20028;-71
2021/12/17 13:43:31;;;;;;;36.63;19.67;;;;;;;7.01;100.00;102222.41;5060498;28;20067;-71
2021/12/17 13:46:01;;;;;;;35.88;18.20;;;;;;;7.01;100.00;102209.44;5050135;28;20027;-71
2021/12/17 13:48:27;;;;;;;36.88;19.85;;;;;;;7.01;100.00;102214.97;5049366;28;20683;-71
2021/12/17 13:50:52;;;;;;;34.35;18.88;;;;;;;7.03;100.00;102214.75;5062056;28;20024;-71
2021/12/17 13:53:18;;;;;;;38.97;19.40;;;;;;;6.99;100.00;102221.78;5057926;28;20033;-71
2021/12/17 13:55:45;;;;;;;37.35;18.45;;;;;;;6.94;100.00;102225.25;5044907;28;20024;-71
2021/12/17 13:58:13;;;;;;;34.35;16.98;;;;;;;6.93;100.00;102218.88;5044564;28;20028;-70
2021/12/17 14:00:43;;;;;;;38.75;19.10;;;;;;;6.90;100.00;102205.50;5055287;28;20041;-70
2021/12/17 14:03:11;;;;;;;39.50;21.52;;;;;;;6.86;100.00;102196.00;5044172;28;20032;-71
2021/12/17 14:05:50;;;;;;;36.95;19.63;;;;;;;6.87;100.00;102186.63;5060516;28;20034;-71
2021/12/17 14:08:18;;;;;;;41.22;20.95;;;;;;;6.87;100.00;102191.31;5048244;28;21957;-69